sensor_id;sensor_type;location;lat;lon;timestamp;P1;durP1;ratioP1;P2;durP2;ratioP2
59294;SDS011;45067;44.654;20.200;2023-04-24T00:01:22;17.33;;;7.13;;
59294;SDS011;45067;44.654;20.200;2023-04-24T00:03:48;10.73;;;6.60;;
59294;SDS011;45067;44.654;20.200;2023-04-24T00:06:15;10.27;;;6.47;;
59294;SDS011;45067;44.654;20.200;2023-04-24T00:08:42;9.50;;;5.60;;
59294;SDS011;45067;44.654;20.200;2023-04-24T00:11:08;10.02;;;6.13;;
59294;SDS011;45067;44.654;20.200;2023-04-24T00:13:34;10.32;;;5.93;;
59294;SDS011;45067;44.654;20.200;2023-04-24T00:16:00;7.90;;;5.80;;
59294;SDS011;45067;44.654;20.200;2023-04-24T00:18:27;9.65;;;5.95;;
59294;SDS011;45067;44.654;20.200;2023-04-24T00:20:53;9.45;;;5.60;;
59294;SDS011;45067;44.654;20.200;2023-04-24T00:23:19;8.18;;;5.25;;
59294;SDS011;45067;44.654;20.200;2023-04-24T00:25:45;11.90;;;5.55;;
59294;SDS011;45067;44.654;20.200;2023-04-24T00:28:11;8.98;;;5.60;;
59294;SDS011;45067;44.654;20.200;2023-04-24T00:30:37;8.70;;;5.30;;
59294;SDS011;45067;44.654;20.200;2023-04-24T00:33:03;10.13;;;5.63;;
59294;SDS011;45067;44.654;20.200;2023-04-24T00:35:29;10.40;;;5.35;;
59294;SDS011;45067;44.654;20.200;2023-04-24T00:37:55;9.30;;;5.97;;
59294;SDS011;45067;44.654;20.200;2023-04-24T00:40:22;8.57;;;5.80;;
59294;SDS011;45067;44.654;20.200;2023-04-24T00:42:48;9.05;;;5.90;;
59294;SDS011;45067;44.654;20.200;2023-04-24T00:45:14;9.02;;;5.88;;
59294;SDS011;45067;44.654;20.200;2023-04-24T00:47:41;8.55;;;6.25;;
59294;SDS011;45067;44.654;20.200;2023-04-24T00:50:07;9.35;;;6.45;;
59294;SDS011;45067;44.654;20.200;2023-04-24T00:52:34;12.85;;;7.88;;
59294;SDS011;45067;44.654;20.200;2023-04-24T00:55:00;13.65;;;8.05;;
59294;SDS011;45067;44.654;20.200;2023-04-24T00:57:26;12.27;;;8.50;;
59294;SDS011;45067;44.654;20.200;2023-04-24T00:59:52;11.75;;;7.95;;
59294;SDS011;45067;44.654;20.200;2023-04-24T01:02:18;12.90;;;7.88;;
59294;SDS011;45067;44.654;20.200;2023-04-24T01:04:45;12.25;;;7.78;;
59294;SDS011;45067;44.654;20.200;2023-04-24T01:07:11;11.07;;;7.53;;
59294;SDS011;45067;44.654;20.200;2023-04-24T01:09:38;13.27;;;7.72;;
59294;SDS011;45067;44.654;20.200;2023-04-24T01:12:06;12.02;;;7.55;;
59294;SDS011;45067;44.654;20.200;2023-04-24T01:14:33;11.50;;;8.52;;
59294;SDS011;45067;44.654;20.200;2023-04-24T01:16:59;9.85;;;6.70;;
59294;SDS011;45067;44.654;20.200;2023-04-24T01:19:25;10.35;;;7.03;;
59294;SDS011;45067;44.654;20.200;2023-04-24T01:21:53;10.55;;;6.55;;
59294;SDS011;45067;44.654;20.200;2023-04-24T01:24:19;10.98;;;6.90;;
59294;SDS011;45067;44.654;20.200;2023-04-24T01:26:46;10.25;;;6.18;;
59294;SDS011;45067;44.654;20.200;2023-04-24T01:29:12;12.48;;;6.40;;
59294;SDS011;45067;44.654;20.200;2023-04-24T01:31:39;10.85;;;6.25;;
59294;SDS011;45067;44.654;20.200;2023-04-24T01:34:05;9.75;;;6.18;;
59294;SDS011;45067;44.654;20.200;2023-04-24T01:36:33;9.82;;;6.55;;
59294;SDS011;45067;44.654;20.200;2023-04-24T01:39:01;13.18;;;9.05;;
59294;SDS011;45067;44.654;20.200;2023-04-24T01:41:28;12.13;;;7.63;;
59294;SDS011;45067;44.654;20.200;2023-04-24T01:43:55;10.75;;;7.40;;
59294;SDS011;45067;44.654;20.200;2023-04-24T01:46:23;14.20;;;7.93;;
59294;SDS011;45067;44.654;20.200;2023-04-24T01:48:49;10.90;;;6.53;;
59294;SDS011;45067;44.654;20.200;2023-04-24T01:51:16;12.57;;;7.55;;
59294;SDS011;45067;44.654;20.200;2023-04-24T01:53:43;9.90;;;7.20;;
59294;SDS011;45067;44.654;20.200;2023-04-24T01:56:09;11.00;;;6.95;;
59294;SDS011;45067;44.654;20.200;2023-04-24T01:58:35;12.10;;;7.60;;
59294;SDS011;45067;44.654;20.200;2023-04-24T02:01:03;14.52;;;10.10;;
59294;SDS011;45067;44.654;20.200;2023-04-24T02:03:29;13.68;;;7.68;;
59294;SDS011;45067;44.654;20.200;2023-04-24T02:05:55;11.50;;;7.72;;
59294;SDS011;45067;44.654;20.200;2023-04-24T02:08:22;12.93;;;7.45;;
59294;SDS011;45067;44.654;20.200;2023-04-24T02:10:49;12.57;;;7.30;;
59294;SDS011;45067;44.654;20.200;2023-04-24T02:13:15;10.45;;;7.35;;
59294;SDS011;45067;44.654;20.200;2023-04-24T02:15:41;14.32;;;7.72;;
59294;SDS011;45067;44.654;20.200;2023-04-24T02:18:07;10.60;;;6.30;;
59294;SDS011;45067;44.654;20.200;2023-04-24T02:20:36;8.80;;;5.80;;
59294;SDS011;45067;44.654;20.200;2023-04-24T02:23:02;11.48;;;6.10;;
59294;SDS011;45067;44.654;20.200;2023-04-24T02:25:28;8.05;;;5.35;;
59294;SDS011;45067;44.654;20.200;2023-04-24T02:27:54;9.23;;;5.80;;
59294;SDS011;45067;44.654;20.200;2023-04-24T02:30:20;9.90;;;5.80;;
59294;SDS011;45067;44.654;20.200;2023-04-24T02:32:46;11.23;;;6.03;;
59294;SDS011;45067;44.654;20.200;2023-04-24T02:35:13;7.97;;;6.15;;
59294;SDS011;45067;44.654;20.200;2023-04-24T02:37:39;8.48;;;5.82;;
59294;SDS011;45067;44.654;20.200;2023-04-24T02:40:05;8.02;;;5.85;;
59294;SDS011;45067;44.654;20.200;2023-04-24T02:42:50;9.18;;;5.43;;
59294;SDS011;45067;44.654;20.200;2023-04-24T02:45:16;10.38;;;5.95;;
59294;SDS011;45067;44.654;20.200;2023-04-24T02:47:43;8.30;;;5.40;;
59294;SDS011;45067;44.654;20.200;2023-04-24T02:50:09;8.18;;;5.78;;
59294;SDS011;45067;44.654;20.200;2023-04-24T02:52:35;10.85;;;5.30;;
59294;SDS011;45067;44.654;20.200;2023-04-24T02:55:01;9.13;;;5.68;;
59294;SDS011;45067;44.654;20.200;2023-04-24T02:57:27;9.15;;;6.10;;
59294;SDS011;45067;44.654;20.200;2023-04-24T02:59:53;7.53;;;5.28;;
59294;SDS011;45067;44.654;20.200;2023-04-24T03:02:19;10.70;;;5.70;;
59294;SDS011;45067;44.654;20.200;2023-04-24T03:04:46;10.60;;;6.43;;
59294;SDS011;45067;44.654;20.200;2023-04-24T03:07:13;8.90;;;5.82;;
59294;SDS011;45067;44.654;20.200;2023-04-24T03:09:40;10.02;;;6.50;;
59294;SDS011;45067;44.654;20.200;2023-04-24T03:12:07;10.77;;;6.43;;
59294;SDS011;45067;44.654;20.200;2023-04-24T03:14:33;9.73;;;5.70;;
59294;SDS011;45067;44.654;20.200;2023-04-24T03:16:59;9.55;;;7.47;;
59294;SDS011;45067;44.654;20.200;2023-04-24T03:19:25;9.68;;;6.30;;
59294;SDS011;45067;44.654;20.200;2023-04-24T03:21:51;9.13;;;5.72;;
59294;SDS011;45067;44.654;20.200;2023-04-24T03:24:17;10.63;;;6.88;;
59294;SDS011;45067;44.654;20.200;2023-04-24T03:26:44;9.27;;;6.10;;
59294;SDS011;45067;44.654;20.200;2023-04-24T03:29:10;8.38;;;6.60;;
59294;SDS011;45067;44.654;20.200;2023-04-24T03:31:36;10.48;;;5.80;;
59294;SDS011;45067;44.654;20.200;2023-04-24T03:34:02;11.70;;;6.00;;
59294;SDS011;45067;44.654;20.200;2023-04-24T03:36:28;9.98;;;5.65;;
59294;SDS011;45067;44.654;20.200;2023-04-24T03:38:55;9.60;;;6.53;;
59294;SDS011;45067;44.654;20.200;2023-04-24T03:41:21;10.77;;;6.38;;
59294;SDS011;45067;44.654;20.200;2023-04-24T03:43:47;10.32;;;5.55;;
59294;SDS011;45067;44.654;20.200;2023-04-24T03:46:13;11.10;;;5.93;;
59294;SDS011;45067;44.654;20.200;2023-04-24T03:48:40;10.07;;;5.55;;
59294;SDS011;45067;44.654;20.200;2023-04-24T03:51:06;11.57;;;5.72;;
59294;SDS011;45067;44.654;20.200;2023-04-24T03:53:32;11.25;;;6.10;;
59294;SDS011;45067;44.654;20.200;2023-04-24T03:55:58;8.18;;;5.57;;
59294;SDS011;45067;44.654;20.200;2023-04-24T03:58:24;10.40;;;5.55;;
59294;SDS011;45067;44.654;20.200;2023-04-24T04:00:50;10.80;;;5.93;;
59294;SDS011;45067;44.654;20.200;2023-04-24T04:03:16;8.73;;;5.03;;
59294;SDS011;45067;44.654;20.200;2023-04-24T04:05:43;8.40;;;6.35;;
59294;SDS011;45067;44.654;20.200;2023-04-24T04:08:09;9.05;;;5.88;;
59294;SDS011;45067;44.654;20.200;2023-04-24T04:10:35;10.15;;;6.53;;
59294;SDS011;45067;44.654;20.200;2023-04-24T04:13:01;11.23;;;5.97;;
59294;SDS011;45067;44.654;20.200;2023-04-24T04:15:27;12.32;;;5.88;;
59294;SDS011;45067;44.654;20.200;2023-04-24T04:17:53;10.35;;;6.10;;
59294;SDS011;45067;44.654;20.200;2023-04-24T04:20:19;14.85;;;6.40;;
59294;SDS011;45067;44.654;20.200;2023-04-24T04:22:46;10.75;;;6.32;;
59294;SDS011;45067;44.654;20.200;2023-04-24T04:25:12;12.27;;;6.72;;
59294;SDS011;45067;44.654;20.200;2023-04-24T04:27:38;11.02;;;5.85;;
59294;SDS011;45067;44.654;20.200;2023-04-24T04:30:07;11.63;;;6.10;;
59294;SDS011;45067;44.654;20.200;2023-04-24T04:32:33;12.77;;;6.53;;
59294;SDS011;45067;44.654;20.200;2023-04-24T04:35:03;12.63;;;6.18;;
59294;SDS011;45067;44.654;20.200;2023-04-24T04:37:30;8.32;;;5.65;;
59294;SDS011;45067;44.654;20.200;2023-04-24T04:39:56;11.82;;;6.00;;
59294;SDS011;45067;44.654;20.200;2023-04-24T04:42:26;10.93;;;6.00;;
59294;SDS011;45067;44.654;20.200;2023-04-24T04:44:55;8.25;;;5.88;;
59294;SDS011;45067;44.654;20.200;2023-04-24T04:47:22;11.82;;;7.00;;
59294;SDS011;45067;44.654;20.200;2023-04-24T04:49:48;10.38;;;6.28;;
59294;SDS011;45067;44.654;20.200;2023-04-24T04:52:16;11.02;;;6.85;;
59294;SDS011;45067;44.654;20.200;2023-04-24T04:54:42;11.52;;;6.18;;
59294;SDS011;45067;44.654;20.200;2023-04-24T04:57:09;12.05;;;6.32;;
59294;SDS011;45067;44.654;20.200;2023-04-24T04:59:35;8.77;;;5.55;;
59294;SDS011;45067;44.654;20.200;2023-04-24T05:02:02;12.75;;;5.90;;
59294;SDS011;45067;44.654;20.200;2023-04-24T05:04:29;9.82;;;6.88;;
59294;SDS011;45067;44.654;20.200;2023-04-24T05:06:56;12.52;;;6.30;;
59294;SDS011;45067;44.654;20.200;2023-04-24T05:09:22;13.48;;;7.22;;
59294;SDS011;45067;44.654;20.200;2023-04-24T05:11:53;16.13;;;6.93;;
59294;SDS011;45067;44.654;20.200;2023-04-24T05:14:20;17.00;;;7.55;;
59294;SDS011;45067;44.654;20.200;2023-04-24T05:16:46;13.27;;;6.78;;
59294;SDS011;45067;44.654;20.200;2023-04-24T05:19:12;15.15;;;6.80;;
59294;SDS011;45067;44.654;20.200;2023-04-24T05:21:40;10.27;;;6.45;;
59294;SDS011;45067;44.654;20.200;2023-04-24T05:24:06;12.00;;;8.55;;
59294;SDS011;45067;44.654;20.200;2023-04-24T05:26:32;13.68;;;7.65;;
59294;SDS011;45067;44.654;20.200;2023-04-24T05:28:58;12.32;;;7.32;;
59294;SDS011;45067;44.654;20.200;2023-04-24T05:31:25;14.02;;;7.82;;
59294;SDS011;45067;44.654;20.200;2023-04-24T05:33:51;14.02;;;8.43;;
59294;SDS011;45067;44.654;20.200;2023-04-24T05:36:17;13.60;;;8.43;;
59294;SDS011;45067;44.654;20.200;2023-04-24T05:38:43;18.98;;;8.15;;
59294;SDS011;45067;44.654;20.200;2023-04-24T05:41:18;17.83;;;8.07;;
59294;SDS011;45067;44.654;20.200;2023-04-24T05:43:45;15.50;;;8.32;;
59294;SDS011;45067;44.654;20.200;2023-04-24T05:46:12;15.77;;;9.15;;
59294;SDS011;45067;44.654;20.200;2023-04-24T05:48:38;14.88;;;8.85;;
59294;SDS011;45067;44.654;20.200;2023-04-24T05:51:04;17.50;;;8.48;;
59294;SDS011;45067;44.654;20.200;2023-04-24T05:53:30;17.73;;;9.52;;
59294;SDS011;45067;44.654;20.200;2023-04-24T05:55:56;13.05;;;8.30;;
59294;SDS011;45067;44.654;20.200;2023-04-24T05:58:22;13.95;;;8.63;;
59294;SDS011;45067;44.654;20.200;2023-04-24T06:00:48;14.35;;;8.52;;
59294;SDS011;45067;44.654;20.200;2023-04-24T06:03:14;11.32;;;8.27;;
59294;SDS011;45067;44.654;20.200;2023-04-24T06:05:41;12.45;;;7.68;;
59294;SDS011;45067;44.654;20.200;2023-04-24T06:08:07;18.05;;;7.75;;
59294;SDS011;45067;44.654;20.200;2023-04-24T06:10:33;15.43;;;8.48;;
59294;SDS011;45067;44.654;20.200;2023-04-24T06:12:59;12.18;;;8.90;;
59294;SDS011;45067;44.654;20.200;2023-04-24T06:15:29;13.18;;;9.40;;
59294;SDS011;45067;44.654;20.200;2023-04-24T06:17:58;15.38;;;8.60;;
59294;SDS011;45067;44.654;20.200;2023-04-24T06:20:24;15.32;;;7.80;;
59294;SDS011;45067;44.654;20.200;2023-04-24T06:22:50;15.27;;;8.20;;
59294;SDS011;45067;44.654;20.200;2023-04-24T06:25:16;14.15;;;7.85;;
59294;SDS011;45067;44.654;20.200;2023-04-24T06:27:43;13.60;;;7.05;;
59294;SDS011;45067;44.654;20.200;2023-04-24T06:30:12;10.52;;;7.35;;
59294;SDS011;45067;44.654;20.200;2023-04-24T06:32:39;12.15;;;7.10;;
59294;SDS011;45067;44.654;20.200;2023-04-24T06:35:05;11.90;;;6.53;;
59294;SDS011;45067;44.654;20.200;2023-04-24T06:37:33;12.35;;;7.70;;
59294;SDS011;45067;44.654;20.200;2023-04-24T06:39:59;12.73;;;6.82;;
59294;SDS011;45067;44.654;20.200;2023-04-24T06:42:25;10.98;;;7.50;;
59294;SDS011;45067;44.654;20.200;2023-04-24T06:44:51;15.00;;;8.23;;
59294;SDS011;45067;44.654;20.200;2023-04-24T06:47:17;12.77;;;6.90;;
59294;SDS011;45067;44.654;20.200;2023-04-24T06:49:44;11.15;;;6.78;;
59294;SDS011;45067;44.654;20.200;2023-04-24T06:52:10;10.15;;;6.03;;
59294;SDS011;45067;44.654;20.200;2023-04-24T06:54:36;13.23;;;7.28;;
59294;SDS011;45067;44.654;20.200;2023-04-24T06:57:02;11.82;;;7.65;;
59294;SDS011;45067;44.654;20.200;2023-04-24T06:59:28;11.88;;;6.85;;
59294;SDS011;45067;44.654;20.200;2023-04-24T07:01:55;10.27;;;6.80;;
59294;SDS011;45067;44.654;20.200;2023-04-24T07:04:21;11.55;;;6.75;;
59294;SDS011;45067;44.654;20.200;2023-04-24T07:06:47;8.27;;;6.15;;
59294;SDS011;45067;44.654;20.200;2023-04-24T07:09:17;11.13;;;6.53;;
59294;SDS011;45067;44.654;20.200;2023-04-24T07:11:44;8.27;;;6.28;;
59294;SDS011;45067;44.654;20.200;2023-04-24T07:14:10;8.90;;;6.82;;
59294;SDS011;45067;44.654;20.200;2023-04-24T07:16:37;11.60;;;6.90;;
59294;SDS011;45067;44.654;20.200;2023-04-24T07:19:03;10.57;;;6.97;;
59294;SDS011;45067;44.654;20.200;2023-04-24T07:21:29;7.45;;;5.60;;
59294;SDS011;45067;44.654;20.200;2023-04-24T07:23:57;9.57;;;6.03;;
59294;SDS011;45067;44.654;20.200;2023-04-24T07:26:23;21.75;;;6.60;;
59294;SDS011;45067;44.654;20.200;2023-04-24T07:28:49;10.27;;;5.97;;
59294;SDS011;45067;44.654;20.200;2023-04-24T07:31:15;11.60;;;6.47;;
59294;SDS011;45067;44.654;20.200;2023-04-24T07:33:44;10.43;;;6.00;;
59294;SDS011;45067;44.654;20.200;2023-04-24T07:36:10;8.80;;;6.50;;
59294;SDS011;45067;44.654;20.200;2023-04-24T07:41:06;12.95;;;6.38;;
59294;SDS011;45067;44.654;20.200;2023-04-24T07:43:32;13.82;;;6.97;;
59294;SDS011;45067;44.654;20.200;2023-04-24T07:45:58;10.20;;;6.75;;
59294;SDS011;45067;44.654;20.200;2023-04-24T07:48:25;12.27;;;6.50;;
59294;SDS011;45067;44.654;20.200;2023-04-24T07:50:51;10.63;;;6.38;;
59294;SDS011;45067;44.654;20.200;2023-04-24T07:53:17;11.63;;;6.28;;
59294;SDS011;45067;44.654;20.200;2023-04-24T07:55:43;10.15;;;6.50;;
59294;SDS011;45067;44.654;20.200;2023-04-24T08:01:04;11.57;;;7.38;;
59294;SDS011;45067;44.654;20.200;2023-04-24T08:03:30;14.68;;;7.38;;
59294;SDS011;45067;44.654;20.200;2023-04-24T08:05:56;10.57;;;6.72;;
59294;SDS011;45067;44.654;20.200;2023-04-24T08:08:22;12.10;;;6.35;;
59294;SDS011;45067;44.654;20.200;2023-04-24T08:10:49;10.07;;;6.32;;
59294;SDS011;45067;44.654;20.200;2023-04-24T08:13:15;9.20;;;6.25;;
59294;SDS011;45067;44.654;20.200;2023-04-24T08:15:41;9.63;;;6.68;;
59294;SDS011;45067;44.654;20.200;2023-04-24T08:18:07;11.27;;;6.93;;
59294;SDS011;45067;44.654;20.200;2023-04-24T08:20:33;11.90;;;6.78;;
59294;SDS011;45067;44.654;20.200;2023-04-24T08:23:00;13.55;;;7.60;;
59294;SDS011;45067;44.654;20.200;2023-04-24T08:25:26;11.80;;;8.00;;
59294;SDS011;45067;44.654;20.200;2023-04-24T08:27:52;10.40;;;7.70;;
59294;SDS011;45067;44.654;20.200;2023-04-24T08:30:19;13.93;;;7.72;;
59294;SDS011;45067;44.654;20.200;2023-04-24T08:32:45;9.45;;;6.95;;
59294;SDS011;45067;44.654;20.200;2023-04-24T08:35:11;8.05;;;5.93;;
59294;SDS011;45067;44.654;20.200;2023-04-24T08:37:37;9.02;;;6.50;;
59294;SDS011;45067;44.654;20.200;2023-04-24T08:40:05;12.65;;;6.93;;
59294;SDS011;45067;44.654;20.200;2023-04-24T08:42:33;14.02;;;7.53;;
59294;SDS011;45067;44.654;20.200;2023-04-24T08:45:00;8.15;;;6.30;;
59294;SDS011;45067;44.654;20.200;2023-04-24T08:47:27;11.95;;;7.38;;
59294;SDS011;45067;44.654;20.200;2023-04-24T08:49:54;10.93;;;7.28;;
59294;SDS011;45067;44.654;20.200;2023-04-24T08:52:21;10.25;;;7.35;;
59294;SDS011;45067;44.654;20.200;2023-04-24T08:54:47;14.20;;;7.30;;
59294;SDS011;45067;44.654;20.200;2023-04-24T08:57:16;10.50;;;7.63;;
59294;SDS011;45067;44.654;20.200;2023-04-24T08:59:42;15.63;;;7.22;;
59294;SDS011;45067;44.654;20.200;2023-04-24T09:02:09;11.18;;;7.05;;
59294;SDS011;45067;44.654;20.200;2023-04-24T09:04:36;11.27;;;7.65;;
59294;SDS011;45067;44.654;20.200;2023-04-24T09:07:03;10.32;;;6.97;;
59294;SDS011;45067;44.654;20.200;2023-04-24T09:09:30;12.25;;;6.80;;
59294;SDS011;45067;44.654;20.200;2023-04-24T09:11:56;11.88;;;7.07;;
59294;SDS011;45067;44.654;20.200;2023-04-24T09:14:24;11.02;;;7.60;;
59294;SDS011;45067;44.654;20.200;2023-04-24T09:16:50;10.82;;;7.43;;
59294;SDS011;45067;44.654;20.200;2023-04-24T09:19:16;11.05;;;7.55;;
59294;SDS011;45067;44.654;20.200;2023-04-24T09:21:45;12.10;;;7.78;;
59294;SDS011;45067;44.654;20.200;2023-04-24T09:24:15;12.52;;;8.13;;
59294;SDS011;45067;44.654;20.200;2023-04-24T09:26:47;11.98;;;8.40;;
59294;SDS011;45067;44.654;20.200;2023-04-24T09:29:17;11.65;;;7.43;;
59294;SDS011;45067;44.654;20.200;2023-04-24T09:31:44;11.38;;;7.70;;
59294;SDS011;45067;44.654;20.200;2023-04-24T09:34:10;11.52;;;7.35;;
59294;SDS011;45067;44.654;20.200;2023-04-24T09:36:37;10.82;;;7.53;;
59294;SDS011;45067;44.654;20.200;2023-04-24T09:39:06;9.68;;;6.57;;
59294;SDS011;45067;44.654;20.200;2023-04-24T09:41:33;10.90;;;7.72;;
59294;SDS011;45067;44.654;20.200;2023-04-24T09:46:41;13.05;;;8.85;;
59294;SDS011;45067;44.654;20.200;2023-04-24T09:49:14;13.77;;;8.88;;
59294;SDS011;45067;44.654;20.200;2023-04-24T09:51:41;12.52;;;8.75;;
59294;SDS011;45067;44.654;20.200;2023-04-24T09:54:12;12.70;;;8.63;;
59294;SDS011;45067;44.654;20.200;2023-04-24T09:56:41;12.90;;;7.80;;
59294;SDS011;45067;44.654;20.200;2023-04-24T09:59:09;11.70;;;8.73;;
59294;SDS011;45067;44.654;20.200;2023-04-24T10:01:35;12.13;;;8.88;;
59294;SDS011;45067;44.654;20.200;2023-04-24T10:04:03;9.80;;;8.00;;
59294;SDS011;45067;44.654;20.200;2023-04-24T10:06:35;13.40;;;8.80;;
59294;SDS011;45067;44.654;20.200;2023-04-24T10:09:02;11.68;;;7.88;;
59294;SDS011;45067;44.654;20.200;2023-04-24T10:11:28;10.07;;;6.75;;
59294;SDS011;45067;44.654;20.200;2023-04-24T10:13:55;10.18;;;7.82;;
59294;SDS011;45067;44.654;20.200;2023-04-24T10:16:22;10.88;;;7.80;;
59294;SDS011;45067;44.654;20.200;2023-04-24T10:18:48;12.95;;;9.52;;
59294;SDS011;45067;44.654;20.200;2023-04-24T10:21:15;15.70;;;9.55;;
59294;SDS011;45067;44.654;20.200;2023-04-24T10:23:42;11.70;;;8.52;;
59294;SDS011;45067;44.654;20.200;2023-04-24T10:26:10;13.63;;;9.00;;
59294;SDS011;45067;44.654;20.200;2023-04-24T10:28:43;12.32;;;9.27;;
59294;SDS011;45067;44.654;20.200;2023-04-24T10:31:10;12.38;;;8.85;;
59294;SDS011;45067;44.654;20.200;2023-04-24T10:33:37;13.55;;;7.90;;
59294;SDS011;45067;44.654;20.200;2023-04-24T10:36:06;11.43;;;8.27;;
59294;SDS011;45067;44.654;20.200;2023-04-24T10:38:33;11.95;;;7.40;;
59294;SDS011;45067;44.654;20.200;2023-04-24T10:41:07;12.35;;;8.23;;
59294;SDS011;45067;44.654;20.200;2023-04-24T10:43:41;13.40;;;8.85;;
59294;SDS011;45067;44.654;20.200;2023-04-24T10:46:08;9.50;;;7.50;;
59294;SDS011;45067;44.654;20.200;2023-04-24T10:48:59;13.27;;;7.73;;
59294;SDS011;45067;44.654;20.200;2023-04-24T10:51:24;13.57;;;7.38;;
59294;SDS011;45067;44.654;20.200;2023-04-24T10:53:53;9.23;;;6.20;;
59294;SDS011;45067;44.654;20.200;2023-04-24T10:56:19;11.50;;;7.25;;
59294;SDS011;45067;44.654;20.200;2023-04-24T10:58:51;9.43;;;6.10;;
59294;SDS011;45067;44.654;20.200;2023-04-24T11:01:38;6.90;;;5.55;;
59294;SDS011;45067;44.654;20.200;2023-04-24T11:04:03;8.20;;;5.90;;
59294;SDS011;45067;44.654;20.200;2023-04-24T11:06:33;9.90;;;6.30;;
59294;SDS011;45067;44.654;20.200;2023-04-24T11:18:57;8.30;;;5.40;;
59294;SDS011;45067;44.654;20.200;2023-04-24T11:21:25;9.73;;;5.35;;
59294;SDS011;45067;44.654;20.200;2023-04-24T11:23:58;7.78;;;4.93;;
59294;SDS011;45067;44.654;20.200;2023-04-24T11:26:24;6.85;;;4.03;;
59294;SDS011;45067;44.654;20.200;2023-04-24T11:28:55;9.40;;;4.93;;
59294;SDS011;45067;44.654;20.200;2023-04-24T11:31:38;10.77;;;6.45;;
59294;SDS011;45067;44.654;20.200;2023-04-24T11:34:09;6.70;;;4.97;;
59294;SDS011;45067;44.654;20.200;2023-04-24T11:36:36;8.32;;;5.03;;
59294;SDS011;45067;44.654;20.200;2023-04-24T11:39:02;10.32;;;5.90;;
59294;SDS011;45067;44.654;20.200;2023-04-24T11:41:28;9.27;;;5.70;;
59294;SDS011;45067;44.654;20.200;2023-04-24T11:43:55;9.48;;;5.72;;
59294;SDS011;45067;44.654;20.200;2023-04-24T11:46:22;7.65;;;4.78;;
59294;SDS011;45067;44.654;20.200;2023-04-24T11:48:48;8.60;;;5.85;;
59294;SDS011;45067;44.654;20.200;2023-04-24T11:51:14;7.70;;;5.88;;
59294;SDS011;45067;44.654;20.200;2023-04-24T11:53:40;9.27;;;5.78;;
59294;SDS011;45067;44.654;20.200;2023-04-24T11:56:08;8.32;;;5.03;;
59294;SDS011;45067;44.654;20.200;2023-04-24T11:58:35;9.82;;;5.50;;
59294;SDS011;45067;44.654;20.200;2023-04-24T12:01:01;10.45;;;5.25;;
59294;SDS011;45067;44.654;20.200;2023-04-24T12:03:27;7.38;;;4.78;;
59294;SDS011;45067;44.654;20.200;2023-04-24T12:06:04;6.00;;;4.70;;
59294;SDS011;45067;44.654;20.200;2023-04-24T12:08:31;7.13;;;4.57;;
59294;SDS011;45067;44.654;20.200;2023-04-24T12:10:57;12.07;;;5.68;;
59294;SDS011;45067;44.654;20.200;2023-04-24T12:13:25;7.13;;;5.20;;
59294;SDS011;45067;44.654;20.200;2023-04-24T12:15:51;7.70;;;5.00;;
59294;SDS011;45067;44.654;20.200;2023-04-24T12:18:17;9.05;;;5.15;;
59294;SDS011;45067;44.654;20.200;2023-04-24T12:20:43;6.82;;;4.97;;
59294;SDS011;45067;44.654;20.200;2023-04-24T12:23:09;5.28;;;4.20;;
59294;SDS011;45067;44.654;20.200;2023-04-24T12:25:35;7.38;;;5.00;;
59294;SDS011;45067;44.654;20.200;2023-04-24T12:30:32;6.35;;;4.97;;
59294;SDS011;45067;44.654;20.200;2023-04-24T12:33:02;6.78;;;5.15;;
59294;SDS011;45067;44.654;20.200;2023-04-24T12:35:29;8.77;;;4.60;;
59294;SDS011;45067;44.654;20.200;2023-04-24T12:38:05;7.90;;;5.10;;
59294;SDS011;45067;44.654;20.200;2023-04-24T12:40:31;6.82;;;4.63;;
59294;SDS011;45067;44.654;20.200;2023-04-24T12:42:57;6.75;;;5.13;;
59294;SDS011;45067;44.654;20.200;2023-04-24T12:45:23;13.23;;;5.75;;
59294;SDS011;45067;44.654;20.200;2023-04-24T12:47:50;7.70;;;5.18;;
59294;SDS011;45067;44.654;20.200;2023-04-24T12:50:16;8.80;;;4.80;;
59294;SDS011;45067;44.654;20.200;2023-04-24T12:52:43;7.90;;;5.25;;
59294;SDS011;45067;44.654;20.200;2023-04-24T12:55:09;6.20;;;4.70;;
59294;SDS011;45067;44.654;20.200;2023-04-24T12:57:37;9.57;;;5.07;;
59294;SDS011;45067;44.654;20.200;2023-04-24T13:00:04;6.18;;;4.60;;
59294;SDS011;45067;44.654;20.200;2023-04-24T13:02:30;8.50;;;5.20;;
59294;SDS011;45067;44.654;20.200;2023-04-24T13:04:57;11.93;;;5.55;;
59294;SDS011;45067;44.654;20.200;2023-04-24T13:07:23;9.27;;;5.10;;
59294;SDS011;45067;44.654;20.200;2023-04-24T13:09:50;8.68;;;5.20;;
59294;SDS011;45067;44.654;20.200;2023-04-24T13:12:17;10.43;;;4.82;;
59294;SDS011;45067;44.654;20.200;2023-04-24T13:14:43;8.30;;;4.90;;
59294;SDS011;45067;44.654;20.200;2023-04-24T13:20:17;7.35;;;4.47;;
59294;SDS011;45067;44.654;20.200;2023-04-24T13:22:43;6.05;;;4.68;;
59294;SDS011;45067;44.654;20.200;2023-04-24T13:25:10;8.95;;;4.53;;
59294;SDS011;45067;44.654;20.200;2023-04-24T13:27:45;8.13;;;5.57;;
59294;SDS011;45067;44.654;20.200;2023-04-24T13:30:11;7.25;;;4.97;;
59294;SDS011;45067;44.654;20.200;2023-04-24T13:32:37;9.10;;;4.85;;
59294;SDS011;45067;44.654;20.200;2023-04-24T13:35:04;14.30;;;5.40;;
59294;SDS011;45067;44.654;20.200;2023-04-24T13:37:30;8.65;;;4.88;;
59294;SDS011;45067;44.654;20.200;2023-04-24T13:39:56;7.75;;;5.10;;
59294;SDS011;45067;44.654;20.200;2023-04-24T13:42:22;8.23;;;5.05;;
59294;SDS011;45067;44.654;20.200;2023-04-24T13:44:50;12.38;;;4.93;;
59294;SDS011;45067;44.654;20.200;2023-04-24T13:47:19;9.15;;;4.63;;
59294;SDS011;45067;44.654;20.200;2023-04-24T13:49:54;7.13;;;4.47;;
59294;SDS011;45067;44.654;20.200;2023-04-24T13:52:20;6.72;;;4.60;;
59294;SDS011;45067;44.654;20.200;2023-04-24T13:54:46;8.40;;;4.22;;
59294;SDS011;45067;44.654;20.200;2023-04-24T13:57:13;8.25;;;4.13;;
59294;SDS011;45067;44.654;20.200;2023-04-24T13:59:40;6.32;;;4.07;;
59294;SDS011;45067;44.654;20.200;2023-04-24T14:02:06;6.88;;;3.90;;
59294;SDS011;45067;44.654;20.200;2023-04-24T14:04:34;7.10;;;3.80;;
59294;SDS011;45067;44.654;20.200;2023-04-24T14:07:03;7.20;;;3.97;;
59294;SDS011;45067;44.654;20.200;2023-04-24T14:09:29;5.35;;;3.80;;
59294;SDS011;45067;44.654;20.200;2023-04-24T14:11:55;7.75;;;4.10;;
59294;SDS011;45067;44.654;20.200;2023-04-24T14:14:21;7.68;;;3.80;;
59294;SDS011;45067;44.654;20.200;2023-04-24T14:16:47;5.43;;;4.13;;
59294;SDS011;45067;44.654;20.200;2023-04-24T14:19:13;9.15;;;4.40;;
59294;SDS011;45067;44.654;20.200;2023-04-24T14:21:40;9.50;;;4.63;;
59294;SDS011;45067;44.654;20.200;2023-04-24T14:24:06;8.20;;;4.55;;
59294;SDS011;45067;44.654;20.200;2023-04-24T14:26:32;6.75;;;4.57;;
59294;SDS011;45067;44.654;20.200;2023-04-24T14:28:58;6.97;;;4.32;;
59294;SDS011;45067;44.654;20.200;2023-04-24T14:31:24;6.20;;;3.85;;
59294;SDS011;45067;44.654;20.200;2023-04-24T14:33:50;5.55;;;4.15;;
59294;SDS011;45067;44.654;20.200;2023-04-24T14:36:16;8.43;;;4.30;;
59294;SDS011;45067;44.654;20.200;2023-04-24T14:38:42;5.88;;;4.10;;
59294;SDS011;45067;44.654;20.200;2023-04-24T14:41:11;8.15;;;4.60;;
59294;SDS011;45067;44.654;20.200;2023-04-24T14:43:39;7.70;;;4.30;;
59294;SDS011;45067;44.654;20.200;2023-04-24T14:46:05;9.00;;;4.38;;
59294;SDS011;45067;44.654;20.200;2023-04-24T14:48:31;8.43;;;4.47;;